sensor_id;sensor_type;location;lat;lon;timestamp;pressure;altitude;pressure_sealevel;temperature;humidity
44988;BME280;35735;52.226;21.254;2023-07-13T00:03:32;99847.38;;;19.62;100.00
44988;BME280;35735;52.226;21.254;2023-07-13T00:08:33;99850.25;;;19.59;100.00
44988;BME280;35735;52.226;21.254;2023-07-13T00:13:34;99849.37;;;19.58;100.00
44988;BME280;35735;52.226;21.254;2023-07-13T00:18:34;99837.81;;;19.52;100.00
44988;BME280;35735;52.226;21.254;2023-07-13T00:23:36;99837.81;;;19.52;100.00
44988;BME280;35735;52.226;21.254;2023-07-13T00:28:38;99837.28;;;19.43;100.00
44988;BME280;35735;52.226;21.254;2023-07-13T00:33:40;99832.66;;;19.25;100.00
44988;BME280;35735;52.226;21.254;2023-07-13T00:38:42;99830.06;;;19.22;100.00
44988;BME280;35735;52.226;21.254;2023-07-13T00:43:42;99835.25;;;19.28;100.00
44988;BME280;35735;52.226;21.254;2023-07-13T00:48:45;99828.75;;;19.31;100.00
44988;BME280;35735;52.226;21.254;2023-07-13T00:53:47;99823.69;;;19.21;100.00
44988;BME280;35735;52.226;21.254;2023-07-13T00:58:48;99817.31;;;19.21;100.00
44988;BME280;35735;52.226;21.254;2023-07-13T01:03:49;99823.78;;;19.20;100.00
44988;BME280;35735;52.226;21.254;2023-07-13T01:08:49;99816.09;;;19.07;100.00
44988;BME280;35735;52.226;21.254;2023-07-13T01:13:50;99828.34;;;18.99;100.00
44988;BME280;35735;52.226;21.254;2023-07-13T01:18:50;99832.38;;;18.90;100.00
44988;BME280;35735;52.226;21.254;2023-07-13T01:23:51;99837.09;;;18.86;100.00
44988;BME280;35735;52.226;21.254;2023-07-13T01:28:52;99837.97;;;18.87;100.00
44988;BME280;35735;52.226;21.254;2023-07-13T01:33:53;99834.34;;;18.86;100.00
44988;BME280;35735;52.226;21.254;2023-07-13T01:38:54;99835.47;;;18.81;100.00
44988;BME280;35735;52.226;21.254;2023-07-13T01:43:55;99852.03;;;18.78;100.00
44988;BME280;35735;52.226;21.254;2023-07-13T01:48:55;99856.78;;;18.73;100.00
44988;BME280;35735;52.226;21.254;2023-07-13T01:53:56;99865.25;;;18.66;100.00
44988;BME280;35735;52.226;21.254;2023-07-13T01:58:56;99861.81;;;18.61;100.00
44988;BME280;35735;52.226;21.254;2023-07-13T02:03:57;99864.69;;;18.58;100.00
44988;BME280;35735;52.226;21.254;2023-07-13T02:08:58;99865.50;;;18.60;100.00
44988;BME280;35735;52.226;21.254;2023-07-13T02:14:00;99859.97;;;18.62;100.00
44988;BME280;35735;52.226;21.254;2023-07-13T02:19:00;99859.78;;;18.66;100.00
44988;BME280;35735;52.226;21.254;2023-07-13T02:24:01;99870.97;;;18.60;100.00
44988;BME280;35735;52.226;21.254;2023-07-13T02:29:01;99874.81;;;18.56;100.00
44988;BME280;35735;52.226;21.254;2023-07-13T02:34:03;99886.84;;;18.50;100.00
44988;BME280;35735;52.226;21.254;2023-07-13T02:39:06;99884.19;;;18.49;100.00
44988;BME280;35735;52.226;21.254;2023-07-13T02:44:07;99882.44;;;18.48;100.00
44988;BME280;35735;52.226;21.254;2023-07-13T02:49:07;99878.72;;;18.49;100.00
44988;BME280;35735;52.226;21.254;2023-07-13T02:54:09;99879.75;;;18.46;100.00
44988;BME280;35735;52.226;21.254;2023-07-13T02:59:10;99876.97;;;18.48;100.00
44988;BME280;35735;52.226;21.254;2023-07-13T03:04:10;99867.66;;;18.52;100.00
44988;BME280;35735;52.226;21.254;2023-07-13T03:09:11;99877.91;;;18.47;100.00
44988;BME280;35735;52.226;21.254;2023-07-13T03:14:11;99875.47;;;18.39;100.00
44988;BME280;35735;52.226;21.254;2023-07-13T03:19:12;99883.88;;;18.35;100.00
44988;BME280;35735;52.226;21.254;2023-07-13T03:24:12;99878.59;;;18.30;100.00
44988;BME280;35735;52.226;21.254;2023-07-13T03:29:13;99872.09;;;18.32;100.00
44988;BME280;35735;52.226;21.254;2023-07-13T03:34:13;99876.50;;;18.37;100.00
44988;BME280;35735;52.226;21.254;2023-07-13T03:39:14;99882.91;;;18.36;100.00
44988;BME280;35735;52.226;21.254;2023-07-13T03:44:18;99870.91;;;18.40;100.00
44988;BME280;35735;52.226;21.254;2023-07-13T03:49:19;99860.28;;;18.54;100.00
44988;BME280;35735;52.226;21.254;2023-07-13T03:54:19;99863.16;;;18.73;100.00
44988;BME280;35735;52.226;21.254;2023-07-13T03:59:20;99860.22;;;19.00;100.00
44988;BME280;35735;52.226;21.254;2023-07-13T04:04:20;99851.88;;;19.23;100.00
44988;BME280;35735;52.226;21.254;2023-07-13T04:09:21;99851.25;;;19.58;100.00
44988;BME280;35735;52.226;21.254;2023-07-13T04:14:22;99855.97;;;19.94;100.00
44988;BME280;35735;52.226;21.254;2023-07-13T04:19:23;99860.12;;;20.22;100.00
44988;BME280;35735;52.226;21.254;2023-07-13T04:24:23;99881.94;;;20.42;100.00
44988;BME280;35735;52.226;21.254;2023-07-13T04:29:24;99893.25;;;20.72;100.00
44988;BME280;35735;52.226;21.254;2023-07-13T04:34:25;99896.19;;;21.04;100.00
44988;BME280;35735;52.226;21.254;2023-07-13T04:39:25;99892.75;;;21.36;100.00
44988;BME280;35735;52.226;21.254;2023-07-13T04:44:26;99913.16;;;21.82;100.00
44988;BME280;35735;52.226;21.254;2023-07-13T04:49:26;99915.22;;;22.28;100.00
44988;BME280;35735;52.226;21.254;2023-07-13T04:54:27;99921.44;;;22.48;100.00
44988;BME280;35735;52.226;21.254;2023-07-13T04:59:27;99927.47;;;22.54;100.00
44988;BME280;35735;52.226;21.254;2023-07-13T05:04:28;99936.34;;;22.60;100.00
44988;BME280;35735;52.226;21.254;2023-07-13T05:09:28;99925.53;;;22.56;100.00
44988;BME280;35735;52.226;21.254;2023-07-13T05:14:29;99935.66;;;22.56;100.00
44988;BME280;35735;52.226;21.254;2023-07-13T05:19:29;99934.56;;;22.43;100.00
44988;BME280;35735;52.226;21.254;2023-07-13T05:24:30;99933.63;;;22.44;100.00
44988;BME280;35735;52.226;21.254;2023-07-13T05:29:31;99937.56;;;22.38;100.00
44988;BME280;35735;52.226;21.254;2023-07-13T05:34:31;99945.75;;;22.39;100.00
44988;BME280;35735;52.226;21.254;2023-07-13T05:39:32;99952.31;;;22.37;100.00
44988;BME280;35735;52.226;21.254;2023-07-13T05:44:32;99962.41;;;22.36;100.00
44988;BME280;35735;52.226;21.254;2023-07-13T05:49:33;99968.69;;;22.38;100.00
44988;BME280;35735;52.226;21.254;2023-07-13T05:54:33;99973.41;;;22.36;100.00
44988;BME280;35735;52.226;21.254;2023-07-13T05:59:35;99977.59;;;22.44;100.00
44988;BME280;35735;52.226;21.254;2023-07-13T06:04:36;99972.19;;;22.58;100.00
44988;BME280;35735;52.226;21.254;2023-07-13T06:09:36;99977.72;;;22.74;100.00
44988;BME280;35735;52.226;21.254;2023-07-13T06:14:37;99971.50;;;23.02;100.00
44988;BME280;35735;52.226;21.254;2023-07-13T06:19:37;99957.63;;;23.20;100.00
44988;BME280;35735;52.226;21.254;2023-07-13T06:24:38;99951.81;;;23.40;100.00
44988;BME280;35735;52.226;21.254;2023-07-13T06:29:38;99955.78;;;23.51;100.00
44988;BME280;35735;52.226;21.254;2023-07-13T06:34:39;99956.59;;;23.67;100.00
44988;BME280;35735;52.226;21.254;2023-07-13T06:39:40;99953.88;;;23.81;100.00
44988;BME280;35735;52.226;21.254;2023-07-13T06:44:40;99957.56;;;23.96;100.00
44988;BME280;35735;52.226;21.254;2023-07-13T06:49:41;99947.03;;;24.03;100.00
44988;BME280;35735;52.226;21.254;2023-07-13T06:54:41;99942.22;;;24.21;100.00
44988;BME280;35735;52.226;21.254;2023-07-13T06:59:42;99954.34;;;24.33;100.00
44988;BME280;35735;52.226;21.254;2023-07-13T07:04:42;99960.72;;;24.62;100.00
44988;BME280;35735;52.226;21.254;2023-07-13T07:09:43;99961.28;;;24.82;100.00
44988;BME280;35735;52.226;21.254;2023-07-13T07:14:43;99956.53;;;24.84;100.00
44988;BME280;35735;52.226;21.254;2023-07-13T07:19:44;99961.16;;;24.98;99.35
44988;BME280;35735;52.226;21.254;2023-07-13T07:24:45;99964.22;;;25.35;96.63
44988;BME280;35735;52.226;21.254;2023-07-13T07:29:45;99950.31;;;25.49;96.39
44988;BME280;35735;52.226;21.254;2023-07-13T07:34:46;99958.53;;;25.89;96.53
44988;BME280;35735;52.226;21.254;2023-07-13T07:39:47;99970.53;;;26.28;95.78
44988;BME280;35735;52.226;21.254;2023-07-13T07:44:47;99976.25;;;26.51;92.32
44988;BME280;35735;52.226;21.254;2023-07-13T07:49:48;99978.78;;;26.79;92.67
44988;BME280;35735;52.226;21.254;2023-07-13T07:54:48;99973.94;;;27.07;92.48
44988;BME280;35735;52.226;21.254;2023-07-13T07:59:49;99980.94;;;27.37;91.64
44988;BME280;35735;52.226;21.254;2023-07-13T08:04:49;99985.59;;;27.72;89.94
44988;BME280;35735;52.226;21.254;2023-07-13T08:09:53;99983.34;;;27.77;87.71
44988;BME280;35735;52.226;21.254;2023-07-13T08:14:54;99981.94;;;27.96;87.22
44988;BME280;35735;52.226;21.254;2023-07-13T08:19:54;99979.84;;;28.22;87.49
44988;BME280;35735;52.226;21.254;2023-07-13T08:24:55;99968.84;;;28.43;86.31
44988;BME280;35735;52.226;21.254;2023-07-13T08:29:56;99975.44;;;28.64;85.50
44988;BME280;35735;52.226;21.254;2023-07-13T08:34:56;99988.59;;;28.74;83.54
44988;BME280;35735;52.226;21.254;2023-07-13T08:39:57;99985.41;;;28.78;82.19
44988;BME280;35735;52.226;21.254;2023-07-13T08:45:07;99974.53;;;28.87;83.83
44988;BME280;35735;52.226;21.254;2023-07-13T08:50:24;99973.62;;;29.09;81.92
44988;BME280;35735;52.226;21.254;2023-07-13T08:55:31;99971.88;;;28.85;81.98
44988;BME280;35735;52.226;21.254;2023-07-13T09:00:41;99988.28;;;29.22;80.91
44988;BME280;35735;52.226;21.254;2023-07-13T09:06:02;99983.69;;;29.65;79.39
44988;BME280;35735;52.226;21.254;2023-07-13T09:11:13;99992.78;;;29.99;78.67
44988;BME280;35735;52.226;21.254;2023-07-13T09:16:28;99987.38;;;30.28;77.24
44988;BME280;35735;52.226;21.254;2023-07-13T09:21:36;99975.91;;;30.22;76.98
44988;BME280;35735;52.226;21.254;2023-07-13T09:26:38;99976.25;;;30.28;76.94
44988;BME280;35735;52.226;21.254;2023-07-13T09:31:42;99972.28;;;30.42;76.63
44988;BME280;35735;52.226;21.254;2023-07-13T09:36:45;99964.91;;;30.20;74.45
44988;BME280;35735;52.226;21.254;2023-07-13T09:41:59;99964.63;;;29.92;75.03
44988;BME280;35735;52.226;21.254;2023-07-13T09:47:16;99955.87;;;29.97;75.29
44988;BME280;35735;52.226;21.254;2023-07-13T09:52:18;99958.97;;;29.83;76.06
44988;BME280;35735;52.226;21.254;2023-07-13T09:57:22;99985.97;;;29.60;74.48
44988;BME280;35735;52.226;21.254;2023-07-13T10:02:31;100000.94;;;28.70;72.63
44988;BME280;35735;52.226;21.254;2023-07-13T10:07:38;99980.63;;;27.88;74.12
44988;BME280;35735;52.226;21.254;2023-07-13T10:12:44;99959.81;;;27.23;75.13
44988;BME280;35735;52.226;21.254;2023-07-13T10:17:45;99968.94;;;26.75;75.43
44988;BME280;35735;52.226;21.254;2023-07-13T10:28:00;99944.66;;;26.16;77.41
44988;BME280;35735;52.226;21.254;2023-07-13T10:33:10;99951.62;;;25.96;77.75
44988;BME280;35735;52.226;21.254;2023-07-13T10:38:20;99940.50;;;25.70;78.92
44988;BME280;35735;52.226;21.254;2023-07-13T10:43:27;99921.12;;;25.45;80.30
44988;BME280;35735;52.226;21.254;2023-07-13T10:48:30;99914.69;;;25.31;80.77
44988;BME280;35735;52.226;21.254;2023-07-13T10:53:33;99933.06;;;25.18;81.41
44988;BME280;35735;52.226;21.254;2023-07-13T10:58:40;99934.97;;;25.18;82.52
44988;BME280;35735;52.226;21.254;2023-07-13T11:04:02;99926.78;;;25.16;82.13
44988;BME280;35735;52.226;21.254;2023-07-13T11:14:36;99946.09;;;24.89;83.12
44988;BME280;35735;52.226;21.254;2023-07-13T11:19:39;99949.78;;;24.75;85.12
44988;BME280;35735;52.226;21.254;2023-07-13T11:24:49;99978.37;;;24.59;86.73
44988;BME280;35735;52.226;21.254;2023-07-13T11:29:52;100007.03;;;24.42;88.20
44988;BME280;35735;52.226;21.254;2023-07-13T11:35:13;100015.78;;;24.20;90.98
44988;BME280;35735;52.226;21.254;2023-07-13T11:40:24;100037.91;;;23.74;94.66
44988;BME280;35735;52.226;21.254;2023-07-13T11:45:27;100038.97;;;23.09;97.03
44988;BME280;35735;52.226;21.254;2023-07-13T11:50:28;100040.56;;;22.48;99.21
44988;BME280;35735;52.226;21.254;2023-07-13T11:55:29;100050.25;;;22.05;100.00
44988;BME280;35735;52.226;21.254;2023-07-13T12:00:31;100060.03;;;21.75;100.00
44988;BME280;35735;52.226;21.254;2023-07-13T12:05:32;100067.06;;;21.63;100.00
44988;BME280;35735;52.226;21.254;2023-07-13T12:10:33;100094.41;;;21.48;100.00
44988;BME280;35735;52.226;21.254;2023-07-13T12:15:37;100096.03;;;21.33;100.00
44988;BME280;35735;52.226;21.254;2023-07-13T12:20:40;100094.41;;;21.28;100.00
44988;BME280;35735;52.226;21.254;2023-07-13T12:25:41;100085.50;;;21.23;100.00
44988;BME280;35735;52.226;21.254;2023-07-13T12:30:48;100062.88;;;21.18;100.00
44988;BME280;35735;52.226;21.254;2023-07-13T12:35:52;100066.97;;;21.09;100.00
44988;BME280;35735;52.226;21.254;2023-07-13T12:40:53;100053.72;;;21.00;100.00
44988;BME280;35735;52.226;21.254;2023-07-13T12:50:55;100052.00;;;20.98;100.00
44988;BME280;35735;52.226;21.254;2023-07-13T12:55:58;100041.09;;;20.96;100.00
44988;BME280;35735;52.226;21.254;2023-07-13T13:01:02;100042.97;;;20.96;100.00
44988;BME280;35735;52.226;21.254;2023-07-13T13:11:06;100034.38;;;20.84;100.00
44988;BME280;35735;52.226;21.254;2023-07-13T13:16:11;100040.31;;;20.75;100.00
44988;BME280;35735;52.226;21.254;2023-07-13T13:21:12;100043.19;;;20.72;100.00
44988;BME280;35735;52.226;21.254;2023-07-13T13:26:14;100033.84;;;20.76;100.00
44988;BME280;35735;52.226;21.254;2023-07-13T13:31:15;100057.84;;;20.71;100.00
44988;BME280;35735;52.226;21.254;2023-07-13T13:36:17;100073.38;;;20.72;100.00
44988;BME280;35735;52.226;21.254;2023-07-13T13:41:20;100083.28;;;20.75;100.00
44988;BME280;35735;52.226;21.254;2023-07-13T13:46:22;100091.44;;;20.76;100.00
44988;BME280;35735;52.226;21.254;2023-07-13T13:51:24;100093.28;;;20.76;100.00
44988;BME280;35735;52.226;21.254;2023-07-13T13:56:25;100093.22;;;20.77;100.00
44988;BME280;35735;52.226;21.254;2023-07-13T14:01:25;100087.59;;;20.80;100.00
44988;BME280;35735;52.226;21.254;2023-07-13T14:06:31;100076.31;;;20.86;100.00
44988;BME280;35735;52.226;21.254;2023-07-13T14:11:33;100073.44;;;20.89;100.00
44988;BME280;35735;52.226;21.254;2023-07-13T14:16:33;100068.78;;;20.91;100.00
44988;BME280;35735;52.226;21.254;2023-07-13T14:21:34;100070.41;;;20.96;100.00
44988;BME280;35735;52.226;21.254;2023-07-13T14:26:39;100067.13;;;20.87;100.00
44988;BME280;35735;52.226;21.254;2023-07-13T14:31:41;100060.56;;;20.91;100.00
44988;BME280;35735;52.226;21.254;2023-07-13T14:36:43;100060.78;;;20.87;100.00
44988;BME280;35735;52.226;21.254;2023-07-13T14:41:45;100066.19;;;20.88;100.00
44988;BME280;35735;52.226;21.254;2023-07-13T14:46:46;100065.94;;;20.93;100.00
44988;BME280;35735;52.226;21.254;2023-07-13T14:51:47;100070.41;;;20.96;100.00
44988;BME280;35735;52.226;21.254;2023-07-13T14:56:48;100075.00;;;20.95;100.00
44988;BME280;35735;52.226;21.254;2023-07-13T15:01:49;100063.87;;;20.98;100.00
44988;BME280;35735;52.226;21.254;2023-07-13T15:06:58;100067.50;;;20.99;100.00
44988;BME280;35735;52.226;21.254;2023-07-13T15:12:00;100079.34;;;20.99;100.00
44988;BME280;35735;52.226;21.254;2023-07-13T15:17:01;100081.28;;;20.97;100.00
44988;BME280;35735;52.226;21.254;2023-07-13T15:22:02;100090.19;;;21.02;100.00
44988;BME280;35735;52.226;21.254;2023-07-13T15:27:04;100090.12;;;21.04;100.00
44988;BME280;35735;52.226;21.254;2023-07-13T15:32:13;100085.28;;;21.09;100.00
44988;BME280;35735;52.226;21.254;2023-07-13T15:37:15;100084.50;;;21.07;100.00
44988;BME280;35735;52.226;21.254;2023-07-13T15:42:17;100085.28;;;21.09;100.00
44988;BME280;35735;52.226;21.254;2023-07-13T15:47:18;100081.75;;;21.07;100.00
44988;BME280;35735;52.226;21.254;2023-07-13T15:52:22;100074.75;;;21.00;100.00
44988;BME280;35735;52.226;21.254;2023-07-13T15:57:23;100077.50;;;21.00;100.00
44988;BME280;35735;52.226;21.254;2023-07-13T16:02:24;100089.47;;;20.99;100.00
44988;BME280;35735;52.226;21.254;2023-07-13T16:07:24;100087.72;;;20.96;100.00
44988;BME280;35735;52.226;21.254;2023-07-13T16:12:25;100087.72;;;20.96;100.00
44988;BME280;35735;52.226;21.254;2023-07-13T16:17:26;100099.62;;;20.97;100.00
44988;BME280;35735;52.226;21.254;2023-07-13T16:22:27;100106.06;;;20.96;100.00
44988;BME280;35735;52.226;21.254;2023-07-13T16:27:27;100102.50;;;20.94;100.00
44988;BME280;35735;52.226;21.254;2023-07-13T16:32:28;100111.31;;;20.81;100.00
44988;BME280;35735;52.226;21.254;2023-07-13T16:37:29;100111.47;;;20.78;100.00
44988;BME280;35735;52.226;21.254;2023-07-13T16:42:29;100115.31;;;20.74;100.00
44988;BME280;35735;52.226;21.254;2023-07-13T16:47:30;100116.44;;;20.70;100.00
44988;BME280;35735;52.226;21.254;2023-07-13T16:52:30;100110.28;;;20.65;100.00
44988;BME280;35735;52.226;21.254;2023-07-13T16:57:32;100101.06;;;20.66;100.00
44988;BME280;35735;52.226;21.254;2023-07-13T17:02:35;100108.47;;;20.64;100.00
44988;BME280;35735;52.226;21.254;2023-07-13T17:07:37;100110.38;;;20.62;100.00
44988;BME280;35735;52.226;21.254;2023-07-13T17:12:37;100108.72;;;20.58;100.00
44988;BME280;35735;52.226;21.254;2023-07-13T17:17:39;100113.47;;;20.54;100.00
44988;BME280;35735;52.226;21.254;2023-07-13T17:22:39;100117.31;;;20.50;100.00
44988;BME280;35735;52.226;21.254;2023-07-13T17:27:40;100118.34;;;20.47;100.00
44988;BME280;35735;52.226;21.254;2023-07-13T17:32:42;100118.34;;;20.47;100.00
44988;BME280;35735;52.226;21.254;2023-07-13T17:37:43;100124.56;;;20.51;100.00
44988;BME280;35735;52.226;21.254;2023-07-13T17:42:45;100129.09;;;20.52;100.00
44988;BME280;35735;52.226;21.254;2023-07-13T17:47:46;100116.81;;;20.61;100.00
44988;BME280;35735;52.226;21.254;2023-07-13T17:52:48;100114.06;;;20.61;100.00
44988;BME280;35735;52.226;21.254;2023-07-13T17:57:49;100109.78;;;20.55;100.00
44988;BME280;35735;52.226;21.254;2023-07-13T18:02:49;100114.34;;;20.54;100.00
44988;BME280;35735;52.226;21.254;2023-07-13T18:07:54;100118.66;;;20.60;100.00
44988;BME280;35735;52.226;21.254;2023-07-13T18:12:54;100121.63;;;20.55;100.00
44988;BME280;35735;52.226;21.254;2023-07-13T18:17:57;100117.25;;;20.51;100.00
44988;BME280;35735;52.226;21.254;2023-07-13T18:22:58;100118.34;;;20.47;100.00
44988;BME280;35735;52.226;21.254;2023-07-13T18:27:59;100113.12;;;20.41;100.00
44988;BME280;35735;52.226;21.254;2023-07-13T18:32:59;100119.72;;;20.37;100.00
44988;BME280;35735;52.226;21.254;2023-07-13T18:38:00;100123.53;;;20.33;100.00
44988;BME280;35735;52.226;21.254;2023-07-13T18:43:02;100124.78;;;20.26;100.00
44988;BME280;35735;52.226;21.254;2023-07-13T18:48:03;100135.00;;;20.22;100.00
44988;BME280;35735;52.226;21.254;2023-07-13T18:53:04;100125.66;;;20.26;100.00
44988;BME280;35735;52.226;21.254;2023-07-13T18:58:05;100134.25;;;20.18;100.00
44988;BME280;35735;52.226;21.254;2023-07-13T19:03:19;100134.38;;;20.15;100.00
44988;BME280;35735;52.226;21.254;2023-07-13T19:08:22;100130.28;;;20.05;100.00
44988;BME280;35735;52.226;21.254;2023-07-13T19:13:26;100137.00;;;19.98;100.00
44988;BME280;35735;52.226;21.254;2023-07-13T19:18:28;100139.84;;;19.95;100.00
44988;BME280;35735;52.226;21.254;2023-07-13T19:23:32;100146.94;;;19.78;100.00
44988;BME280;35735;52.226;21.254;2023-07-13T19:28:40;100152.00;;;19.66;100.00
44988;BME280;35735;52.226;21.254;2023-07-13T19:33:41;100148.50;;;19.62;100.00
44988;BME280;35735;52.226;21.254;2023-07-13T19:38:42;100157.19;;;19.51;100.00
44988;BME280;35735;52.226;21.254;2023-07-13T19:43:45;100158.47;;;19.41;100.00
44988;BME280;35735;52.226;21.254;2023-07-13T19:48:46;100154.28;;;19.32;100.00
44988;BME280;35735;52.226;21.254;2023-07-13T19:53:50;100143.97;;;19.17;100.00
44988;BME280;35735;52.226;21.254;2023-07-13T19:58:52;100166.03;;;19.12;100.00
44988;BME280;35735;52.226;21.254;2023-07-13T20:03:53;100165.31;;;19.07;100.00
44988;BME280;35735;52.226;21.254;2023-07-13T20:08:57;100171.34;;;18.93;100.00
44988;BME280;35735;52.226;21.254;2023-07-13T20:13:58;100166.75;;;18.94;100.00
44988;BME280;35735;52.226;21.254;2023-07-13T20:18:58;100191.78;;;18.83;100.00
44988;BME280;35735;52.226;21.254;2023-07-13T20:23:59;100178.19;;;18.80;100.00
44988;BME280;35735;52.226;21.254;2023-07-13T20:29:00;100180.19;;;18.75;100.00
44988;BME280;35735;52.226;21.254;2023-07-13T20:34:02;100189.56;;;18.67;100.00
44988;BME280;35735;52.226;21.254;2023-07-13T20:39:09;100184.56;;;18.55;100.00
44988;BME280;35735;52.226;21.254;2023-07-13T20:44:10;100201.16;;;18.49;100.00
44988;BME280;35735;52.226;21.254;2023-07-13T20:49:11;100199.00;;;18.33;100.00
44988;BME280;35735;52.226;21.254;2023-07-13T20:54:15;100201.94;;;18.27;100.00
44988;BME280;35735;52.226;21.254;2023-07-13T20:59:16;100205.63;;;18.26;100.00
44988;BME280;35735;52.226;21.254;2023-07-13T21:04:16;100211.97;;;18.27;100.00
44988;BME280;35735;52.226;21.254;2023-07-13T21:09:18;100221.94;;;18.29;100.00
44988;BME280;35735;52.226;21.254;2023-07-13T21:14:19;100213.72;;;18.29;100.00
44988;BME280;35735;52.226;21.254;2023-07-13T21:19:20;100213.59;;;18.32;100.00
44988;BME280;35735;52.226;21.254;2023-07-13T21:24:20;100216.16;;;18.37;100.00
44988;BME280;35735;52.226;21.254;2023-07-13T21:29:21;100205.25;;;18.37;100.00
44988;BME280;35735;52.226;21.254;2023-07-13T21:34:22;100213.50;;;18.36;100.00
44988;BME280;35735;52.226;21.254;2023-07-13T21:39:22;100231.78;;;18.33;100.00
44988;BME280;35735;52.226;21.254;2023-07-13T21:44:26;100221.94;;;18.29;100.00
44988;BME280;35735;52.226;21.254;2023-07-13T21:49:27;100222.56;;;18.38;100.00
44988;BME280;35735;52.226;21.254;2023-07-13T21:54:28;100216.94;;;18.41;100.00
44988;BME280;35735;52.226;21.254;2023-07-13T21:59:29;100221.78;;;18.32;100.00
44988;BME280;35735;52.226;21.254;2023-07-13T22:04:29;100223.94;;;18.24;100.00
44988;BME280;35735;52.226;21.254;2023-07-13T22:09:30;100213.00;;;18.24;100.00
44988;BME280;35735;52.226;21.254;2023-07-13T22:14:30;100219.66;;;18.15;100.00
44988;BME280;35735;52.226;21.254;2023-07-13T22:19:31;100223.59;;;18.07;100.00
44988;BME280;35735;52.226;21.254;2023-07-13T22:24:32;100218.97;;;18.09;100.00
44988;BME280;35735;52.226;21.254;2023-07-13T22:29:32;100220.78;;;18.10;100.00
44988;BME280;35735;52.226;21.254;2023-07-13T22:34:33;100226.09;;;18.14;100.00
44988;BME280;35735;52.226;21.254;2023-07-13T22:39:34;100221.44;;;18.17;100.00
44988;BME280;35735;52.226;21.254;2023-07-13T22:44:34;100219.75;;;18.12;100.00
44988;BME280;35735;52.226;21.254;2023-07-13T22:49:35;100206.19;;;18.11;100.00
44988;BME280;35735;52.226;21.254;2023-07-13T22:54:35;100200.13;;;18.01;100.00
44988;BME280;35735;52.226;21.254;2023-07-13T22:59:36;100211.09;;;18.00;100.00
44988;BME280;35735;52.226;21.254;2023-07-13T23:04:36;100208.66;;;17.90;100.00
44988;BME280;35735;52.226;21.254;2023-07-13T23:09:37;100216.19;;;17.82;100.00
44988;BME280;35735;52.226;21.254;2023-07-13T23:14:38;100211.66;;;17.83;100.00
44988;BME280;35735;52.226;21.254;2023-07-13T23:19:38;100207.13;;;17.82;100.00
44988;BME280;35735;52.226;21.254;2023-07-13T23:24:39;100209.75;;;17.85;100.00
44988;BME280;35735;52.226;21.254;2023-07-13T23:29:39;100208.97;;;17.81;100.00
44988;BME280;35735;52.226;21.254;2023-07-13T23:34:40;100202.75;;;17.76;100.00
44988;BME280;35735;52.226;21.254;2023-07-13T23:39:40;100205.94;;;17.62;100.00
44988;BME280;35735;52.226;21.254;2023-07-13T23:44:41;100202.50;;;17.55;100.00
44988;BME280;35735;52.226;21.254;2023-07-13T23:49:42;100200.22;;;17.41;100.00
44988;BME280;35735;52.226;21.254;2023-07-13T23:54:42;100205.69;;;17.41;100.00
44988;BME280;35735;52.226;21.254;2023-07-13T23:59:43;100203.31;;;17.31;100.00
